sensor_id;sensor_type;location;lat;lon;timestamp;P1;durP1;ratioP1;P2;durP2;ratioP2
61471;SDS011;47337;54.068;12.114;2024-02-21T00:01:27;37.22;;;12.50;;
61471;SDS011;47337;54.068;12.114;2024-02-21T00:03:53;40.53;;;13.05;;
61471;SDS011;47337;54.068;12.114;2024-02-21T00:06:18;38.22;;;12.82;;
61471;SDS011;47337;54.068;12.114;2024-02-21T00:08:43;36.22;;;13.15;;
61471;SDS011;47337;54.068;12.114;2024-02-21T00:11:08;36.75;;;13.23;;
61471;SDS011;47337;54.068;12.114;2024-02-21T00:13:34;36.67;;;13.90;;
61471;SDS011;47337;54.068;12.114;2024-02-21T00:16:01;32.80;;;13.30;;
61471;SDS011;47337;54.068;12.114;2024-02-21T00:18:27;34.38;;;13.13;;
61471;SDS011;47337;54.068;12.114;2024-02-21T00:20:52;42.40;;;13.27;;
61471;SDS011;47337;54.068;12.114;2024-02-21T00:23:18;37.05;;;14.38;;
61471;SDS011;47337;54.068;12.114;2024-02-21T00:25:43;39.42;;;14.15;;
61471;SDS011;47337;54.068;12.114;2024-02-21T00:28:08;32.58;;;14.20;;
61471;SDS011;47337;54.068;12.114;2024-02-21T00:30:33;37.10;;;13.45;;
61471;SDS011;47337;54.068;12.114;2024-02-21T00:32:59;41.17;;;14.73;;
61471;SDS011;47337;54.068;12.114;2024-02-21T00:35:24;41.00;;;14.48;;
61471;SDS011;47337;54.068;12.114;2024-02-21T00:37:51;42.75;;;15.20;;
61471;SDS011;47337;54.068;12.114;2024-02-21T00:40:16;47.83;;;15.38;;
61471;SDS011;47337;54.068;12.114;2024-02-21T00:42:45;37.85;;;15.02;;
61471;SDS011;47337;54.068;12.114;2024-02-21T00:45:10;41.58;;;14.77;;
61471;SDS011;47337;54.068;12.114;2024-02-21T00:47:36;49.53;;;14.65;;
61471;SDS011;47337;54.068;12.114;2024-02-21T00:50:01;33.05;;;14.30;;
61471;SDS011;47337;54.068;12.114;2024-02-21T00:52:26;38.70;;;14.98;;
61471;SDS011;47337;54.068;12.114;2024-02-21T00:54:51;33.15;;;14.45;;
61471;SDS011;47337;54.068;12.114;2024-02-21T00:57:17;41.33;;;14.80;;
61471;SDS011;47337;54.068;12.114;2024-02-21T00:59:42;33.33;;;14.65;;
61471;SDS011;47337;54.068;12.114;2024-02-21T01:02:07;36.08;;;15.07;;
61471;SDS011;47337;54.068;12.114;2024-02-21T01:04:34;37.20;;;15.88;;
61471;SDS011;47337;54.068;12.114;2024-02-21T01:06:59;39.92;;;16.15;;
61471;SDS011;47337;54.068;12.114;2024-02-21T01:09:24;43.72;;;16.35;;
61471;SDS011;47337;54.068;12.114;2024-02-21T01:11:49;39.88;;;15.48;;
61471;SDS011;47337;54.068;12.114;2024-02-21T01:14:17;41.85;;;15.98;;
61471;SDS011;47337;54.068;12.114;2024-02-21T01:16:43;44.25;;;17.35;;
61471;SDS011;47337;54.068;12.114;2024-02-21T01:19:08;41.53;;;16.25;;
61471;SDS011;47337;54.068;12.114;2024-02-21T01:21:33;41.60;;;16.63;;
61471;SDS011;47337;54.068;12.114;2024-02-21T01:23:58;30.20;;;15.40;;
61471;SDS011;47337;54.068;12.114;2024-02-21T01:26:23;39.15;;;15.98;;
61471;SDS011;47337;54.068;12.114;2024-02-21T01:28:51;43.00;;;16.48;;
61471;SDS011;47337;54.068;12.114;2024-02-21T01:31:17;41.17;;;17.90;;
61471;SDS011;47337;54.068;12.114;2024-02-21T01:33:42;38.50;;;17.17;;
61471;SDS011;47337;54.068;12.114;2024-02-21T01:36:08;40.67;;;17.17;;
61471;SDS011;47337;54.068;12.114;2024-02-21T01:38:35;46.55;;;17.60;;
61471;SDS011;47337;54.068;12.114;2024-02-21T01:41:01;42.17;;;17.33;;
61471;SDS011;47337;54.068;12.114;2024-02-21T01:43:26;41.92;;;16.92;;
61471;SDS011;47337;54.068;12.114;2024-02-21T01:45:55;38.55;;;17.42;;
61471;SDS011;47337;54.068;12.114;2024-02-21T01:48:21;42.15;;;17.08;;
61471;SDS011;47337;54.068;12.114;2024-02-21T01:50:47;39.90;;;16.80;;
61471;SDS011;47337;54.068;12.114;2024-02-21T01:53:14;38.47;;;16.63;;
61471;SDS011;47337;54.068;12.114;2024-02-21T01:55:46;41.70;;;17.98;;
61471;SDS011;47337;54.068;12.114;2024-02-21T01:58:13;49.20;;;16.83;;
61471;SDS011;47337;54.068;12.114;2024-02-21T02:00:44;38.88;;;16.58;;
61471;SDS011;47337;54.068;12.114;2024-02-21T02:03:10;47.38;;;17.23;;
61471;SDS011;47337;54.068;12.114;2024-02-21T02:05:45;42.28;;;17.65;;
61471;SDS011;47337;54.068;12.114;2024-02-21T02:08:13;42.38;;;17.50;;
61471;SDS011;47337;54.068;12.114;2024-02-21T02:10:38;42.20;;;16.48;;
61471;SDS011;47337;54.068;12.114;2024-02-21T02:13:04;32.85;;;17.30;;
61471;SDS011;47337;54.068;12.114;2024-02-21T02:15:37;35.92;;;17.67;;
61471;SDS011;47337;54.068;12.114;2024-02-21T02:20:27;40.92;;;16.92;;
61471;SDS011;47337;54.068;12.114;2024-02-21T02:22:53;42.45;;;16.25;;
61471;SDS011;47337;54.068;12.114;2024-02-21T02:25:18;41.38;;;16.65;;
61471;SDS011;47337;54.068;12.114;2024-02-21T02:27:43;45.15;;;16.45;;
61471;SDS011;47337;54.068;12.114;2024-02-21T02:30:10;41.45;;;16.40;;
61471;SDS011;47337;54.068;12.114;2024-02-21T02:32:35;43.20;;;17.00;;
61471;SDS011;47337;54.068;12.114;2024-02-21T02:35:01;39.97;;;16.70;;
61471;SDS011;47337;54.068;12.114;2024-02-21T02:37:26;42.33;;;17.67;;
61471;SDS011;47337;54.068;12.114;2024-02-21T02:39:51;42.33;;;17.58;;
61471;SDS011;47337;54.068;12.114;2024-02-21T02:42:16;41.83;;;18.10;;
61471;SDS011;47337;54.068;12.114;2024-02-21T02:44:42;42.88;;;17.33;;
61471;SDS011;47337;54.068;12.114;2024-02-21T02:47:08;45.38;;;18.55;;
61471;SDS011;47337;54.068;12.114;2024-02-21T02:49:33;37.72;;;16.65;;
61471;SDS011;47337;54.068;12.114;2024-02-21T02:51:58;46.13;;;17.42;;
61471;SDS011;47337;54.068;12.114;2024-02-21T02:54:23;44.70;;;16.70;;
61471;SDS011;47337;54.068;12.114;2024-02-21T02:56:49;45.72;;;16.85;;
61471;SDS011;47337;54.068;12.114;2024-02-21T02:59:15;44.08;;;18.23;;
61471;SDS011;47337;54.068;12.114;2024-02-21T03:01:40;51.05;;;17.58;;
61471;SDS011;47337;54.068;12.114;2024-02-21T03:04:05;43.08;;;18.40;;
61471;SDS011;47337;54.068;12.114;2024-02-21T03:06:30;40.63;;;16.15;;
61471;SDS011;47337;54.068;12.114;2024-02-21T03:08:56;39.33;;;15.98;;
61471;SDS011;47337;54.068;12.114;2024-02-21T03:11:21;42.70;;;17.15;;
61471;SDS011;47337;54.068;12.114;2024-02-21T03:13:53;42.60;;;15.98;;
61471;SDS011;47337;54.068;12.114;2024-02-21T03:16:19;43.47;;;16.75;;
61471;SDS011;47337;54.068;12.114;2024-02-21T03:18:44;42.40;;;18.52;;
61471;SDS011;47337;54.068;12.114;2024-02-21T03:21:09;39.17;;;15.57;;
61471;SDS011;47337;54.068;12.114;2024-02-21T03:23:35;36.50;;;15.77;;
61471;SDS011;47337;54.068;12.114;2024-02-21T03:26:00;38.30;;;15.98;;
61471;SDS011;47337;54.068;12.114;2024-02-21T03:28:29;36.42;;;16.20;;
61471;SDS011;47337;54.068;12.114;2024-02-21T03:30:55;34.33;;;15.60;;
61471;SDS011;47337;54.068;12.114;2024-02-21T03:33:22;34.10;;;15.32;;
61471;SDS011;47337;54.068;12.114;2024-02-21T03:35:48;40.65;;;15.40;;
61471;SDS011;47337;54.068;12.114;2024-02-21T03:38:13;33.55;;;14.73;;
61471;SDS011;47337;54.068;12.114;2024-02-21T03:40:38;34.33;;;15.48;;
61471;SDS011;47337;54.068;12.114;2024-02-21T03:43:04;42.08;;;16.02;;
61471;SDS011;47337;54.068;12.114;2024-02-21T03:45:29;33.15;;;14.93;;
61471;SDS011;47337;54.068;12.114;2024-02-21T03:47:54;34.92;;;15.07;;
61471;SDS011;47337;54.068;12.114;2024-02-21T03:50:19;34.17;;;14.57;;
61471;SDS011;47337;54.068;12.114;2024-02-21T03:52:45;31.38;;;13.80;;
61471;SDS011;47337;54.068;12.114;2024-02-21T03:55:12;34.13;;;13.85;;
61471;SDS011;47337;54.068;12.114;2024-02-21T03:57:38;37.28;;;12.85;;
61471;SDS011;47337;54.068;12.114;2024-02-21T04:00:03;35.10;;;15.25;;
61471;SDS011;47337;54.068;12.114;2024-02-21T04:02:29;28.70;;;12.75;;
61471;SDS011;47337;54.068;12.114;2024-02-21T04:04:54;31.58;;;13.50;;
61471;SDS011;47337;54.068;12.114;2024-02-21T04:07:19;38.13;;;14.10;;
61471;SDS011;47337;54.068;12.114;2024-02-21T04:09:45;30.23;;;13.25;;
61471;SDS011;47337;54.068;12.114;2024-02-21T04:12:10;30.95;;;12.77;;
61471;SDS011;47337;54.068;12.114;2024-02-21T04:14:35;32.35;;;13.70;;
61471;SDS011;47337;54.068;12.114;2024-02-21T04:17:00;27.17;;;12.38;;
61471;SDS011;47337;54.068;12.114;2024-02-21T04:19:26;28.05;;;11.50;;
61471;SDS011;47337;54.068;12.114;2024-02-21T04:21:54;28.80;;;13.10;;
61471;SDS011;47337;54.068;12.114;2024-02-21T04:24:19;30.80;;;12.18;;
61471;SDS011;47337;54.068;12.114;2024-02-21T04:26:44;30.48;;;13.45;;
61471;SDS011;47337;54.068;12.114;2024-02-21T04:29:10;29.80;;;12.48;;
61471;SDS011;47337;54.068;12.114;2024-02-21T04:31:35;26.17;;;11.50;;
61471;SDS011;47337;54.068;12.114;2024-02-21T04:34:00;26.17;;;11.38;;
61471;SDS011;47337;54.068;12.114;2024-02-21T04:36:26;29.63;;;12.60;;
61471;SDS011;47337;54.068;12.114;2024-02-21T04:38:51;27.30;;;13.30;;
61471;SDS011;47337;54.068;12.114;2024-02-21T04:41:16;33.28;;;12.77;;
61471;SDS011;47337;54.068;12.114;2024-02-21T04:43:41;29.25;;;13.43;;
61471;SDS011;47337;54.068;12.114;2024-02-21T04:46:07;29.13;;;11.90;;
61471;SDS011;47337;54.068;12.114;2024-02-21T04:48:32;26.45;;;12.05;;
61471;SDS011;47337;54.068;12.114;2024-02-21T04:50:57;35.80;;;12.38;;
61471;SDS011;47337;54.068;12.114;2024-02-21T04:53:22;30.30;;;12.27;;
61471;SDS011;47337;54.068;12.114;2024-02-21T04:55:48;32.13;;;13.25;;
61471;SDS011;47337;54.068;12.114;2024-02-21T04:58:13;27.48;;;11.95;;
61471;SDS011;47337;54.068;12.114;2024-02-21T05:00:38;24.00;;;11.75;;
61471;SDS011;47337;54.068;12.114;2024-02-21T05:03:06;29.63;;;12.50;;
61471;SDS011;47337;54.068;12.114;2024-02-21T05:05:31;30.60;;;12.52;;
61471;SDS011;47337;54.068;12.114;2024-02-21T05:07:57;31.27;;;13.98;;
61471;SDS011;47337;54.068;12.114;2024-02-21T05:10:22;31.25;;;13.25;;
61471;SDS011;47337;54.068;12.114;2024-02-21T05:12:49;24.75;;;11.50;;
61471;SDS011;47337;54.068;12.114;2024-02-21T05:15:14;29.85;;;12.45;;
61471;SDS011;47337;54.068;12.114;2024-02-21T05:17:42;31.98;;;12.82;;
61471;SDS011;47337;54.068;12.114;2024-02-21T05:20:08;31.23;;;13.00;;
61471;SDS011;47337;54.068;12.114;2024-02-21T05:22:36;30.95;;;12.90;;
61471;SDS011;47337;54.068;12.114;2024-02-21T05:25:01;29.25;;;12.85;;
61471;SDS011;47337;54.068;12.114;2024-02-21T05:27:29;29.73;;;13.77;;
61471;SDS011;47337;54.068;12.114;2024-02-21T05:29:56;35.17;;;12.98;;
61471;SDS011;47337;54.068;12.114;2024-02-21T05:32:25;31.95;;;13.30;;
61471;SDS011;47337;54.068;12.114;2024-02-21T05:34:51;31.73;;;14.05;;
61471;SDS011;47337;54.068;12.114;2024-02-21T05:37:16;29.73;;;14.30;;
61471;SDS011;47337;54.068;12.114;2024-02-21T05:39:41;29.23;;;13.40;;
61471;SDS011;47337;54.068;12.114;2024-02-21T05:42:09;37.53;;;15.05;;
61471;SDS011;47337;54.068;12.114;2024-02-21T05:44:34;32.42;;;14.50;;
61471;SDS011;47337;54.068;12.114;2024-02-21T05:46:59;37.47;;;14.23;;
61471;SDS011;47337;54.068;12.114;2024-02-21T05:49:25;32.33;;;13.50;;
61471;SDS011;47337;54.068;12.114;2024-02-21T05:51:50;37.53;;;14.90;;
61471;SDS011;47337;54.068;12.114;2024-02-21T05:54:15;32.05;;;13.25;;
61471;SDS011;47337;54.068;12.114;2024-02-21T05:56:43;33.92;;;14.05;;
61471;SDS011;47337;54.068;12.114;2024-02-21T05:59:09;36.03;;;14.50;;
61471;SDS011;47337;54.068;12.114;2024-02-21T06:01:37;31.83;;;14.57;;
61471;SDS011;47337;54.068;12.114;2024-02-21T06:04:02;32.83;;;14.32;;
61471;SDS011;47337;54.068;12.114;2024-02-21T06:06:27;37.72;;;14.32;;
61471;SDS011;47337;54.068;12.114;2024-02-21T06:08:52;21.40;;;9.60;;
61471;SDS011;47337;54.068;12.114;2024-02-21T06:11:18;13.50;;;6.15;;
61471;SDS011;47337;54.068;12.114;2024-02-21T06:13:43;12.48;;;4.95;;
61471;SDS011;47337;54.068;12.114;2024-02-21T06:16:08;4.78;;;2.53;;
61471;SDS011;47337;54.068;12.114;2024-02-21T06:18:35;3.22;;;1.27;;
61471;SDS011;47337;54.068;12.114;2024-02-21T06:21:00;6.00;;;1.67;;
61471;SDS011;47337;54.068;12.114;2024-02-21T06:23:26;2.42;;;1.50;;
61471;SDS011;47337;54.068;12.114;2024-02-21T06:25:51;5.97;;;1.80;;
61471;SDS011;47337;54.068;12.114;2024-02-21T06:28:17;4.15;;;1.98;;
61471;SDS011;47337;54.068;12.114;2024-02-21T06:30:43;6.13;;;2.58;;
61471;SDS011;47337;54.068;12.114;2024-02-21T06:33:08;4.10;;;1.85;;
61471;SDS011;47337;54.068;12.114;2024-02-21T06:35:34;8.55;;;3.00;;
61471;SDS011;47337;54.068;12.114;2024-02-21T06:37:59;4.18;;;2.50;;
61471;SDS011;47337;54.068;12.114;2024-02-21T06:40:24;6.50;;;2.80;;
61471;SDS011;47337;54.068;12.114;2024-02-21T06:42:50;7.25;;;4.15;;
61471;SDS011;47337;54.068;12.114;2024-02-21T06:45:18;5.80;;;3.03;;
61471;SDS011;47337;54.068;12.114;2024-02-21T06:47:43;5.85;;;2.92;;
61471;SDS011;47337;54.068;12.114;2024-02-21T06:50:11;7.03;;;2.78;;
61471;SDS011;47337;54.068;12.114;2024-02-21T06:52:36;5.35;;;2.80;;
61471;SDS011;47337;54.068;12.114;2024-02-21T06:55:04;3.90;;;2.03;;
61471;SDS011;47337;54.068;12.114;2024-02-21T06:57:29;2.97;;;1.75;;
61471;SDS011;47337;54.068;12.114;2024-02-21T06:59:54;7.10;;;1.95;;
61471;SDS011;47337;54.068;12.114;2024-02-21T07:02:20;4.72;;;1.80;;
61471;SDS011;47337;54.068;12.114;2024-02-21T07:04:45;4.75;;;2.08;;
61471;SDS011;47337;54.068;12.114;2024-02-21T07:07:10;4.03;;;2.00;;
61471;SDS011;47337;54.068;12.114;2024-02-21T07:09:35;4.72;;;2.17;;
61471;SDS011;47337;54.068;12.114;2024-02-21T07:12:01;6.05;;;2.72;;
61471;SDS011;47337;54.068;12.114;2024-02-21T07:14:29;6.03;;;2.30;;
61471;SDS011;47337;54.068;12.114;2024-02-21T07:16:54;5.00;;;2.65;;
61471;SDS011;47337;54.068;12.114;2024-02-21T07:19:22;5.47;;;1.95;;
61471;SDS011;47337;54.068;12.114;2024-02-21T07:21:47;6.10;;;2.20;;
61471;SDS011;47337;54.068;12.114;2024-02-21T07:24:13;5.15;;;2.22;;
61471;SDS011;47337;54.068;12.114;2024-02-21T07:26:41;6.03;;;2.05;;
61471;SDS011;47337;54.068;12.114;2024-02-21T07:29:06;5.53;;;1.92;;
61471;SDS011;47337;54.068;12.114;2024-02-21T07:31:31;7.00;;;2.97;;
61471;SDS011;47337;54.068;12.114;2024-02-21T07:33:56;10.65;;;2.20;;
61471;SDS011;47337;54.068;12.114;2024-02-21T07:36:31;6.80;;;2.30;;
61471;SDS011;47337;54.068;12.114;2024-02-21T07:38:56;5.70;;;1.75;;
61471;SDS011;47337;54.068;12.114;2024-02-21T07:41:24;9.27;;;1.75;;
61471;SDS011;47337;54.068;12.114;2024-02-21T07:43:50;7.07;;;1.63;;
61471;SDS011;47337;54.068;12.114;2024-02-21T07:46:15;5.93;;;1.70;;
61471;SDS011;47337;54.068;12.114;2024-02-21T07:48:40;5.93;;;1.50;;
61471;SDS011;47337;54.068;12.114;2024-02-21T07:51:08;4.75;;;1.42;;
61471;SDS011;47337;54.068;12.114;2024-02-21T07:53:33;6.82;;;1.60;;
61471;SDS011;47337;54.068;12.114;2024-02-21T07:55:59;7.50;;;1.45;;
61471;SDS011;47337;54.068;12.114;2024-02-21T07:58:24;5.28;;;1.33;;
61471;SDS011;47337;54.068;12.114;2024-02-21T08:00:49;7.93;;;1.80;;
61471;SDS011;47337;54.068;12.114;2024-02-21T08:03:15;5.88;;;1.50;;
61471;SDS011;47337;54.068;12.114;2024-02-21T08:05:42;7.32;;;1.67;;
61471;SDS011;47337;54.068;12.114;2024-02-21T08:08:10;3.47;;;1.45;;
61471;SDS011;47337;54.068;12.114;2024-02-21T08:10:35;2.75;;;1.08;;
61471;SDS011;47337;54.068;12.114;2024-02-21T08:13:00;5.97;;;1.30;;
61471;SDS011;47337;54.068;12.114;2024-02-21T08:15:28;4.70;;;1.20;;
61471;SDS011;47337;54.068;12.114;2024-02-21T08:17:55;5.88;;;1.42;;
61471;SDS011;47337;54.068;12.114;2024-02-21T08:20:23;4.10;;;1.00;;
61471;SDS011;47337;54.068;12.114;2024-02-21T08:22:51;5.53;;;1.17;;
61471;SDS011;47337;54.068;12.114;2024-02-21T08:25:16;5.55;;;1.13;;
61471;SDS011;47337;54.068;12.114;2024-02-21T08:27:42;6.35;;;1.80;;
61471;SDS011;47337;54.068;12.114;2024-02-21T08:30:09;4.13;;;1.00;;
61471;SDS011;47337;54.068;12.114;2024-02-21T08:32:37;3.58;;;1.30;;
61471;SDS011;47337;54.068;12.114;2024-02-21T08:35:03;1.63;;;1.10;;
61471;SDS011;47337;54.068;12.114;2024-02-21T08:37:28;3.22;;;1.23;;
61471;SDS011;47337;54.068;12.114;2024-02-21T08:39:53;2.63;;;0.95;;
61471;SDS011;47337;54.068;12.114;2024-02-21T08:42:19;2.10;;;1.13;;
61471;SDS011;47337;54.068;12.114;2024-02-21T08:44:44;2.47;;;1.15;;
61471;SDS011;47337;54.068;12.114;2024-02-21T08:47:09;5.88;;;1.20;;
61471;SDS011;47337;54.068;12.114;2024-02-21T08:49:35;3.17;;;1.00;;
61471;SDS011;47337;54.068;12.114;2024-02-21T08:52:03;5.05;;;1.08;;
61471;SDS011;47337;54.068;12.114;2024-02-21T08:54:28;5.68;;;1.30;;
61471;SDS011;47337;54.068;12.114;2024-02-21T08:56:54;4.53;;;1.15;;
61471;SDS011;47337;54.068;12.114;2024-02-21T08:59:19;4.55;;;1.20;;
61471;SDS011;47337;54.068;12.114;2024-02-21T09:01:45;4.85;;;1.13;;
61471;SDS011;47337;54.068;12.114;2024-02-21T09:04:11;2.95;;;1.08;;
61471;SDS011;47337;54.068;12.114;2024-02-21T09:06:38;2.90;;;1.05;;
61471;SDS011;47337;54.068;12.114;2024-02-21T09:09:07;7.10;;;1.35;;
61471;SDS011;47337;54.068;12.114;2024-02-21T09:11:33;3.50;;;1.75;;
61471;SDS011;47337;54.068;12.114;2024-02-21T09:14:01;3.20;;;1.05;;
61471;SDS011;47337;54.068;12.114;2024-02-21T09:16:28;2.78;;;1.10;;
61471;SDS011;47337;54.068;12.114;2024-02-21T09:18:53;3.88;;;1.10;;
61471;SDS011;47337;54.068;12.114;2024-02-21T09:21:19;4.75;;;1.13;;
61471;SDS011;47337;54.068;12.114;2024-02-21T09:23:44;2.80;;;1.17;;
61471;SDS011;47337;54.068;12.114;2024-02-21T09:26:10;6.25;;;1.58;;
61471;SDS011;47337;54.068;12.114;2024-02-21T09:28:39;4.15;;;1.10;;
61471;SDS011;47337;54.068;12.114;2024-02-21T09:31:04;4.93;;;1.17;;
61471;SDS011;47337;54.068;12.114;2024-02-21T09:33:29;4.22;;;1.02;;
61471;SDS011;47337;54.068;12.114;2024-02-21T09:35:54;5.63;;;1.35;;
61471;SDS011;47337;54.068;12.114;2024-02-21T09:38:20;7.45;;;1.33;;
61471;SDS011;47337;54.068;12.114;2024-02-21T09:40:46;2.00;;;0.98;;
61471;SDS011;47337;54.068;12.114;2024-02-21T09:43:12;3.50;;;1.20;;
61471;SDS011;47337;54.068;12.114;2024-02-21T09:45:42;3.38;;;0.88;;
61471;SDS011;47337;54.068;12.114;2024-02-21T09:50:36;5.47;;;1.00;;
61471;SDS011;47337;54.068;12.114;2024-02-21T09:53:08;2.40;;;1.10;;
61471;SDS011;47337;54.068;12.114;2024-02-21T09:55:34;5.97;;;1.20;;
61471;SDS011;47337;54.068;12.114;2024-02-21T09:58:03;7.40;;;1.17;;
61471;SDS011;47337;54.068;12.114;2024-02-21T10:00:32;4.25;;;1.35;;
61471;SDS011;47337;54.068;12.114;2024-02-21T10:02:58;5.68;;;1.30;;
61471;SDS011;47337;54.068;12.114;2024-02-21T10:05:25;3.45;;;1.10;;
61471;SDS011;47337;54.068;12.114;2024-02-21T10:07:52;4.15;;;1.38;;
61471;SDS011;47337;54.068;12.114;2024-02-21T10:10:17;7.55;;;1.67;;
61471;SDS011;47337;54.068;12.114;2024-02-21T10:12:52;3.20;;;1.05;;
61471;SDS011;47337;54.068;12.114;2024-02-21T10:15:23;3.75;;;0.80;;
61471;SDS011;47337;54.068;12.114;2024-02-21T10:17:49;5.15;;;1.00;;
61471;SDS011;47337;54.068;12.114;2024-02-21T10:20:15;3.38;;;1.02;;
61471;SDS011;47337;54.068;12.114;2024-02-21T10:22:42;1.88;;;1.15;;
61471;SDS011;47337;54.068;12.114;2024-02-21T10:25:11;4.55;;;1.00;;
61471;SDS011;47337;54.068;12.114;2024-02-21T10:27:37;2.88;;;0.93;;
61471;SDS011;47337;54.068;12.114;2024-02-21T10:30:03;2.22;;;0.98;;
61471;SDS011;47337;54.068;12.114;2024-02-21T10:32:28;2.78;;;0.70;;
61471;SDS011;47337;54.068;12.114;2024-02-21T10:35:02;4.15;;;1.05;;
61471;SDS011;47337;54.068;12.114;2024-02-21T10:37:29;2.75;;;0.90;;
61471;SDS011;47337;54.068;12.114;2024-02-21T10:39:54;3.13;;;0.77;;
61471;SDS011;47337;54.068;12.114;2024-02-21T10:42:21;3.42;;;1.02;;
61471;SDS011;47337;54.068;12.114;2024-02-21T10:44:46;4.25;;;0.80;;
61471;SDS011;47337;54.068;12.114;2024-02-21T10:47:16;4.80;;;0.82;;
61471;SDS011;47337;54.068;12.114;2024-02-21T10:49:46;4.97;;;1.00;;
61471;SDS011;47337;54.068;12.114;2024-02-21T10:54:52;6.10;;;1.00;;
61471;SDS011;47337;54.068;12.114;2024-02-21T10:57:18;2.80;;;1.08;;
61471;SDS011;47337;54.068;12.114;2024-02-21T10:59:44;2.60;;;0.82;;
61471;SDS011;47337;54.068;12.114;2024-02-21T11:02:10;3.90;;;0.90;;
61471;SDS011;47337;54.068;12.114;2024-02-21T11:04:35;4.95;;;0.82;;
61471;SDS011;47337;54.068;12.114;2024-02-21T11:07:01;2.40;;;0.57;;
61471;SDS011;47337;54.068;12.114;2024-02-21T11:09:32;5.30;;;1.17;;
61471;SDS011;47337;54.068;12.114;2024-02-21T11:11:57;1.50;;;0.70;;
61471;SDS011;47337;54.068;12.114;2024-02-21T11:14:28;4.25;;;0.90;;
61471;SDS011;47337;54.068;12.114;2024-02-21T11:16:54;2.72;;;1.05;;
61471;SDS011;47337;54.068;12.114;2024-02-21T11:19:27;4.03;;;1.00;;
61471;SDS011;47337;54.068;12.114;2024-02-21T11:21:53;3.03;;;1.27;;
61471;SDS011;47337;54.068;12.114;2024-02-21T11:24:26;4.97;;;0.98;;
61471;SDS011;47337;54.068;12.114;2024-02-21T11:26:52;5.38;;;1.25;;
61471;SDS011;47337;54.068;12.114;2024-02-21T11:29:22;5.07;;;0.90;;
61471;SDS011;47337;54.068;12.114;2024-02-21T11:31:48;4.82;;;1.20;;
61471;SDS011;47337;54.068;12.114;2024-02-21T11:34:13;9.20;;;1.88;;
61471;SDS011;47337;54.068;12.114;2024-02-21T11:36:48;4.72;;;1.98;;
61471;SDS011;47337;54.068;12.114;2024-02-21T11:39:18;6.93;;;1.13;;
61471;SDS011;47337;54.068;12.114;2024-02-21T11:41:46;6.65;;;1.45;;
61471;SDS011;47337;54.068;12.114;2024-02-21T11:44:11;3.92;;;0.80;;
61471;SDS011;47337;54.068;12.114;2024-02-21T11:46:37;6.22;;;1.20;;
61471;SDS011;47337;54.068;12.114;2024-02-21T11:49:02;7.38;;;1.35;;
61471;SDS011;47337;54.068;12.114;2024-02-21T11:51:28;2.25;;;1.00;;
61471;SDS011;47337;54.068;12.114;2024-02-21T11:53:53;5.85;;;0.93;;
61471;SDS011;47337;54.068;12.114;2024-02-21T11:56:19;4.07;;;1.10;;
61471;SDS011;47337;54.068;12.114;2024-02-21T11:58:48;3.78;;;0.98;;
61471;SDS011;47337;54.068;12.114;2024-02-21T12:01:16;5.63;;;0.90;;
61471;SDS011;47337;54.068;12.114;2024-02-21T12:03:42;4.20;;;0.90;;
61471;SDS011;47337;54.068;12.114;2024-02-21T12:06:14;3.30;;;1.42;;
61471;SDS011;47337;54.068;12.114;2024-02-21T12:08:40;5.18;;;1.15;;
61471;SDS011;47337;54.068;12.114;2024-02-21T12:11:15;5.35;;;1.20;;
61471;SDS011;47337;54.068;12.114;2024-02-21T12:13:43;5.93;;;1.17;;
61471;SDS011;47337;54.068;12.114;2024-02-21T12:16:08;4.00;;;0.98;;
61471;SDS011;47337;54.068;12.114;2024-02-21T12:18:33;6.68;;;1.30;;
61471;SDS011;47337;54.068;12.114;2024-02-21T12:20:59;3.45;;;1.20;;
61471;SDS011;47337;54.068;12.114;2024-02-21T12:23:28;3.65;;;1.02;;
61471;SDS011;47337;54.068;12.114;2024-02-21T12:25:54;4.55;;;1.17;;
61471;SDS011;47337;54.068;12.114;2024-02-21T12:28:21;4.60;;;1.25;;
61471;SDS011;47337;54.068;12.114;2024-02-21T12:30:47;3.78;;;0.90;;
61471;SDS011;47337;54.068;12.114;2024-02-21T12:33:14;4.95;;;1.48;;
61471;SDS011;47337;54.068;12.114;2024-02-21T12:35:40;7.13;;;1.27;;
61471;SDS011;47337;54.068;12.114;2024-02-21T12:38:05;9.07;;;1.40;;
61471;SDS011;47337;54.068;12.114;2024-02-21T12:40:30;5.50;;;1.25;;
61471;SDS011;47337;54.068;12.114;2024-02-21T12:42:58;5.50;;;1.00;;
61471;SDS011;47337;54.068;12.114;2024-02-21T12:45:23;5.63;;;1.02;;
61471;SDS011;47337;54.068;12.114;2024-02-21T12:47:49;7.47;;;1.58;;
61471;SDS011;47337;54.068;12.114;2024-02-21T12:50:14;2.50;;;0.90;;
61471;SDS011;47337;54.068;12.114;2024-02-21T12:52:40;6.47;;;1.30;;
61471;SDS011;47337;54.068;12.114;2024-02-21T12:55:05;1.83;;;0.65;;
61471;SDS011;47337;54.068;12.114;2024-02-21T12:57:31;3.03;;;0.90;;
61471;SDS011;47337;54.068;12.114;2024-02-21T12:59:56;7.47;;;1.10;;
61471;SDS011;47337;54.068;12.114;2024-02-21T13:02:21;3.45;;;0.80;;
61471;SDS011;47337;54.068;12.114;2024-02-21T13:04:49;4.50;;;1.40;;
61471;SDS011;47337;54.068;12.114;2024-02-21T13:07:14;4.97;;;1.02;;
61471;SDS011;47337;54.068;12.114;2024-02-21T13:09:39;5.20;;;1.20;;
61471;SDS011;47337;54.068;12.114;2024-02-21T13:12:05;4.70;;;1.00;;
61471;SDS011;47337;54.068;12.114;2024-02-21T13:14:33;3.58;;;1.95;;
61471;SDS011;47337;54.068;12.114;2024-02-21T13:17:00;4.00;;;1.00;;
61471;SDS011;47337;54.068;12.114;2024-02-21T13:19:25;1.77;;;1.00;;
61471;SDS011;47337;54.068;12.114;2024-02-21T13:21:50;3.33;;;0.93;;
61471;SDS011;47337;54.068;12.114;2024-02-21T13:24:15;5.82;;;1.10;;
61471;SDS011;47337;54.068;12.114;2024-02-21T13:26:41;5.13;;;1.55;;
61471;SDS011;47337;54.068;12.114;2024-02-21T13:29:06;2.17;;;0.70;;
61471;SDS011;47337;54.068;12.114;2024-02-21T13:31:31;2.22;;;1.10;;
61471;SDS011;47337;54.068;12.114;2024-02-21T13:33:56;2.15;;;1.00;;
61471;SDS011;47337;54.068;12.114;2024-02-21T13:36:22;3.83;;;1.13;;
61471;SDS011;47337;54.068;12.114;2024-02-21T13:38:47;3.65;;;1.33;;
61471;SDS011;47337;54.068;12.114;2024-02-21T13:41:16;1.90;;;1.30;;
61471;SDS011;47337;54.068;12.114;2024-02-21T13:43:42;3.22;;;1.42;;
61471;SDS011;47337;54.068;12.114;2024-02-21T13:46:08;3.35;;;1.38;;
61471;SDS011;47337;54.068;12.114;2024-02-21T13:48:35;4.30;;;1.60;;
61471;SDS011;47337;54.068;12.114;2024-02-21T13:51:00;4.50;;;1.52;;
61471;SDS011;47337;54.068;12.114;2024-02-21T13:53:27;2.95;;;1.85;;
61471;SDS011;47337;54.068;12.114;2024-02-21T13:55:53;5.15;;;2.10;;
61471;SDS011;47337;54.068;12.114;2024-02-21T13:58:18;4.68;;;1.70;;
61471;SDS011;47337;54.068;12.114;2024-02-21T14:00:43;2.25;;;1.42;;
61471;SDS011;47337;54.068;12.114;2024-02-21T14:03:09;3.33;;;1.65;;
61471;SDS011;47337;54.068;12.114;2024-02-21T14:05:34;3.95;;;1.58;;
61471;SDS011;47337;54.068;12.114;2024-02-21T14:08:00;1.95;;;1.40;;
61471;SDS011;47337;54.068;12.114;2024-02-21T14:10:25;1.67;;;1.30;;
61471;SDS011;47337;54.068;12.114;2024-02-21T14:12:50;1.95;;;1.52;;
61471;SDS011;47337;54.068;12.114;2024-02-21T14:15:15;3.47;;;2.05;;
61471;SDS011;47337;54.068;12.114;2024-02-21T14:17:44;5.65;;;2.40;;
61471;SDS011;47337;54.068;12.114;2024-02-21T14:20:09;3.45;;;2.55;;
61471;SDS011;47337;54.068;12.114;2024-02-21T14:22:34;3.38;;;2.70;;
61471;SDS011;47337;54.068;12.114;2024-02-21T14:25:02;5.82;;;2.85;;